Time;durP1;ratioP1;P1;durP2;ratioP2;P2;SDS_P1;SDS_P2;PMS_P1;PMS_P2;Temp;Humidity;BMP_temperature;BMP_pressure;BME280_temperature;BME280_humidity;BME280_pressure;Samples;Min_cycle;Max_cycle;Signal;HPM_P1;HPM_P2
2022/07/12 00:02:26;;;;;;;0.85;0.80;;;19.30;56.20;;;;;;5010789;28;20160;-51
2022/07/12 00:04:55;;;;;;;0.98;0.95;;;19.20;56.20;;;;;;5009903;28;20056;-47
2022/07/12 00:07:22;;;;;;;1.10;1.02;;;19.20;56.10;;;;;;5030096;28;20045;-47
2022/07/12 00:09:53;;;;;;;0.98;0.70;;;19.10;56.20;;;;;;5041794;28;20535;-50
2022/07/12 00:12:22;;;;;;;0.85;0.85;;;19.10;56.30;;;;;;5050026;28;20075;-47
2022/07/12 00:14:50;;;;;;;2.50;0.93;;;19.00;56.30;;;;;;5039595;28;20041;-50
2022/07/12 00:17:17;;;;;;;2.47;0.90;;;19.00;56.30;;;;;;5037055;28;20033;-51
2022/07/12 00:19:44;;;;;;;1.08;1.00;;;18.90;56.40;;;;;;5041650;28;20068;-48
2022/07/12 00:22:11;;;;;;;0.77;0.77;;;18.90;56.60;;;;;;5057229;22;20052;-45
2022/07/12 00:24:37;;;;;;;0.90;0.68;;;18.90;56.70;;;;;;5001133;28;20376;-47
2022/07/12 00:27:04;;;;;;;1.10;0.80;;;19.00;56.70;;;;;;5005214;28;20085;-46
2022/07/12 00:29:31;;;;;;;1.23;1.13;;;18.80;56.70;;;;;;5014246;28;20518;-47
2022/07/12 00:32:00;;;;;;;0.88;0.80;;;18.70;56.70;;;;;;5009754;28;20042;-48
2022/07/12 00:34:27;;;;;;;0.95;0.80;;;18.70;56.90;;;;;;5003370;28;20042;-47
2022/07/12 00:36:58;;;;;;;0.70;0.70;;;18.60;56.70;;;;;;5005169;28;20273;-47
2022/07/12 00:39:31;;;;;;;0.77;0.77;;;18.60;56.60;;;;;;5006488;28;20041;-46
2022/07/12 00:42:00;;;;;;;1.73;0.70;;;18.60;56.60;;;;;;5013662;28;20050;-48
2022/07/12 00:44:27;;;;;;;1.33;0.95;;;18.50;56.50;;;;;;5007984;28;20038;-47
2022/07/12 00:46:54;;;;;;;0.77;0.77;;;18.50;56.70;;;;;;5003308;28;20074;-45
2022/07/12 00:49:23;;;;;;;1.17;0.77;;;18.50;56.90;;;;;;4997570;28;20050;-48
2022/07/12 00:51:50;;;;;;;1.23;0.80;;;18.40;56.90;;;;;;5013276;28;20046;-47
2022/07/12 00:54:19;;;;;;;0.60;0.60;;;18.40;56.80;;;;;;5001383;28;20062;-46
2022/07/12 00:56:47;;;;;;;0.70;0.70;;;18.30;56.70;;;;;;5001467;28;20042;-48
2022/07/12 00:59:14;;;;;;;1.10;1.00;;;18.30;56.80;;;;;;5012468;28;20041;-48
2022/07/12 01:01:41;;;;;;;1.20;0.68;;;18.30;57.10;;;;;;5010848;28;20494;-47
2022/07/12 01:04:09;;;;;;;0.57;0.57;;;18.20;57.00;;;;;;5004255;28;20052;-46
2022/07/12 01:06:38;;;;;;;0.85;0.70;;;18.20;57.10;;;;;;5004845;28;20056;-48
2022/07/12 01:09:08;;;;;;;0.85;0.47;;;18.20;57.30;;;;;;5012947;28;20038;-47
2022/07/12 01:11:35;;;;;;;0.80;0.80;;;18.10;57.10;;;;;;5008356;28;20564;-47
2022/07/12 01:14:03;;;;;;;0.98;0.98;;;18.10;57.20;;;;;;5009406;28;20045;-45
2022/07/12 01:16:32;;;;;;;1.17;0.77;;;18.10;57.30;;;;;;5004854;28;20052;-46
2022/07/12 01:19:03;;;;;;;0.88;0.88;;;18.00;57.40;;;;;;5012797;28;20076;-47
2022/07/12 01:21:37;;;;;;;1.10;0.98;;;18.00;57.20;;;;;;5008830;28;20536;-47
2022/07/12 01:24:06;;;;;;;1.80;0.73;;;17.90;57.50;;;;;;5007647;28;20100;-45
2022/07/12 01:26:33;;;;;;;1.33;0.90;;;17.90;57.40;;;;;;5006276;28;20049;-49
2022/07/12 01:29:00;;;;;;;0.80;0.80;;;17.90;57.40;;;;;;5012402;28;20080;-44
2022/07/12 01:31:31;;;;;;;1.52;0.80;;;17.90;57.30;;;;;;5007468;28;20046;-48
2022/07/12 01:33:58;;;;;;;2.85;1.08;;;17.80;57.60;;;;;;5002108;28;20063;-47
2022/07/12 01:36:25;;;;;;;2.10;0.90;;;17.80;57.50;;;;;;5011825;28;20065;-46
2022/07/12 01:39:00;;;;;;;1.10;0.85;;;17.70;57.50;;;;;;5011875;28;20046;-47
2022/07/12 01:41:28;;;;;;;1.02;1.02;;;17.80;57.60;;;;;;5006199;28;20489;-48
2022/07/12 01:43:55;;;;;;;0.73;0.73;;;17.70;57.60;;;;;;5001845;28;20453;-46
2022/07/12 01:46:23;;;;;;;1.45;1.02;;;17.70;57.70;;;;;;5012411;28;20073;-45
2022/07/12 01:48:50;;;;;;;0.85;0.80;;;17.70;57.70;;;;;;5008437;28;20041;-46
2022/07/12 01:51:17;;;;;;;1.58;1.15;;;17.60;57.60;;;;;;5003217;28;20042;-47
2022/07/12 01:53:47;;;;;;;1.05;0.70;;;17.60;57.70;;;;;;5004109;28;20026;-48
2022/07/12 01:56:18;;;;;;;1.45;0.80;;;17.60;57.60;;;;;;5012106;28;20107;-47
2022/07/12 01:58:48;;;;;;;1.92;0.93;;;17.60;57.70;;;;;;4998712;28;20042;-45
2022/07/12 02:01:17;;;;;;;1.08;0.80;;;17.50;57.60;;;;;;5001586;28;20145;-47
2022/07/12 02:03:44;;;;;;;1.33;0.80;;;17.50;57.60;;;;;;5007029;28;20554;-45
2022/07/12 02:06:11;;;;;;;0.82;0.82;;;17.40;57.60;;;;;;5011876;28;20458;-47
2022/07/12 02:08:44;;;;;;;1.15;0.93;;;17.50;57.80;;;;;;5000423;28;20066;-46
2022/07/12 02:11:13;;;;;;;0.85;0.68;;;17.40;58.10;;;;;;5002339;28;20470;-48
2022/07/12 02:13:43;;;;;;;0.98;0.90;;;17.40;57.90;;;;;;5007006;28;20041;-46
2022/07/12 02:16:11;;;;;;;1.85;1.00;;;17.40;57.90;;;;;;5007775;28;20038;-45
2022/07/12 02:18:43;;;;;;;1.63;0.93;;;17.30;57.80;;;;;;5002775;28;20447;-47
2022/07/12 02:21:09;;;;;;;0.90;0.80;;;17.30;57.70;;;;;;5003915;28;20041;-47
2022/07/12 02:23:36;;;;;;;1.73;0.80;;;17.30;57.80;;;;;;5011747;28;20605;-46
2022/07/12 02:26:05;;;;;;;1.55;1.10;;;17.20;57.80;;;;;;5006373;28;20913;-46
2022/07/12 02:28:31;;;;;;;0.60;0.60;;;17.20;57.70;;;;;;5006311;28;20046;-46
2022/07/12 02:31:00;;;;;;;0.90;0.90;;;17.20;57.70;;;;;;5003406;28;20572;-46
2022/07/12 02:33:30;;;;;;;1.25;1.15;;;17.20;57.70;;;;;;5011707;28;20037;-44
2022/07/12 02:36:06;;;;;;;1.48;0.90;;;17.10;57.80;;;;;;5008174;28;20124;-47
2022/07/12 02:38:35;;;;;;;1.60;0.80;;;17.10;58.00;;;;;;5004628;28;20493;-47
2022/07/12 02:41:11;;;;;;;2.05;0.95;;;17.10;58.10;;;;;;5003065;28;20448;-46
2022/07/12 02:43:38;;;;;;;2.08;0.82;;;17.00;58.10;;;;;;5011807;28;20056;-45
2022/07/12 02:46:07;;;;;;;1.30;1.00;;;17.00;58.10;;;;;;4986269;28;20047;-47
2022/07/12 02:48:38;;;;;;;1.15;1.02;;;17.00;58.20;;;;;;5002232;28;20042;-45
2022/07/12 02:51:10;;;;;;;0.98;0.98;;;17.00;58.30;;;;;;5010062;28;20100;-46
2022/07/12 02:53:39;;;;;;;;;;;16.90;58.10;;;;;;5011720;28;20100;-44
2022/07/12 02:56:11;;;;;;;0.80;0.80;;;17.00;58.10;;;;;;4995615;28;19921;-45
2022/07/12 02:58:43;;;;;;;0.68;0.68;;;16.90;57.70;;;;;;4999430;28;20043;-46
2022/07/12 03:01:11;;;;;;;0.88;0.80;;;16.90;57.90;;;;;;5010183;28;20041;-46
2022/07/12 03:03:39;;;;;;;1.55;0.80;;;16.80;58.00;;;;;;5003314;28;20042;-45
2022/07/12 03:06:06;;;;;;;1.90;1.08;;;16.80;58.10;;;;;;5000926;28;20050;-46
2022/07/12 03:08:36;;;;;;;1.98;0.80;;;16.80;58.10;;;;;;4999090;28;20397;-47
2022/07/12 03:11:02;;;;;;;3.53;0.90;;;16.80;58.20;;;;;;4992239;28;20049;-47
2022/07/12 03:13:31;;;;;;;2.42;0.80;;;16.70;58.20;;;;;;4994825;28;20038;-45
2022/07/12 03:16:05;;;;;;;1.00;0.90;;;16.70;58.30;;;;;;5007409;28;20054;-47
2022/07/12 03:18:34;;;;;;;1.23;0.88;;;16.70;58.30;;;;;;5005147;28;20042;-46
2022/07/12 03:21:02;;;;;;;1.45;0.80;;;16.60;58.30;;;;;;5011709;28;20038;-48
2022/07/12 03:23:29;;;;;;;1.08;0.82;;;16.60;58.50;;;;;;5003561;28;20069;-47
2022/07/12 03:25:56;;;;;;;2.20;0.90;;;16.60;58.50;;;;;;5001457;28;20046;-46
2022/07/12 03:28:25;;;;;;;1.95;0.80;;;16.60;58.60;;;;;;4999935;28;20100;-46
2022/07/12 03:30:52;;;;;;;2.30;1.30;;;16.60;58.70;;;;;;4995961;28;20038;-46
2022/07/12 03:33:21;;;;;;;0.80;0.80;;;16.60;58.80;;;;;;4995090;28;20042;-48
2022/07/12 03:35:48;;;;;;;1.23;0.70;;;16.60;58.90;;;;;;5002895;28;20045;-46
2022/07/12 03:38:15;;;;;;;1.38;0.80;;;16.60;58.80;;;;;;5010672;28;20049;-45
2022/07/12 03:40:43;;;;;;;0.88;0.88;;;16.50;58.80;;;;;;5009366;28;20061;-46
2022/07/12 03:43:13;;;;;;;1.40;1.30;;;16.50;58.70;;;;;;5005673;28;20061;-45
2022/07/12 03:45:42;;;;;;;2.25;1.00;;;16.50;58.70;;;;;;5002997;28;20045;-47
2022/07/12 03:48:10;;;;;;;1.17;1.10;;;16.50;58.80;;;;;;5011011;28;20105;-47
2022/07/12 03:50:39;;;;;;;1.17;1.00;;;16.50;59.00;;;;;;5007854;28;20046;-47
2022/07/12 03:53:08;;;;;;;1.30;1.20;;;16.40;59.10;;;;;;4994994;28;20082;-45
2022/07/12 03:55:37;;;;;;;1.15;0.95;;;16.40;59.40;;;;;;5002673;28;20452;-46
2022/07/12 03:58:03;;;;;;;0.90;0.70;;;16.40;59.20;;;;;;5011045;28;20722;-46
2022/07/12 04:00:31;;;;;;;3.72;0.98;;;16.40;59.40;;;;;;5005530;28;20108;-46
2022/07/12 04:02:58;;;;;;;1.20;0.95;;;16.40;59.40;;;;;;5009390;28;20119;-46
2022/07/12 04:05:27;;;;;;;1.05;1.05;;;16.40;59.40;;;;;;5007761;28;20061;-48
2022/07/12 04:08:02;;;;;;;1.30;1.13;;;16.40;59.50;;;;;;5014532;28;20113;-49
2022/07/12 04:10:34;;;;;;;1.13;0.60;;;16.40;59.50;;;;;;5008045;28;20100;-47
2022/07/12 04:13:04;;;;;;;1.92;0.80;;;16.40;59.70;;;;;;5005554;28;20497;-49
2022/07/12 04:15:30;;;;;;;0.80;0.80;;;16.40;59.60;;;;;;5008033;28;20069;-46
2022/07/12 04:18:01;;;;;;;2.08;1.10;;;16.40;59.70;;;;;;5007727;28;20072;-47
2022/07/12 04:20:29;;;;;;;1.13;0.80;;;16.50;60.00;;;;;;4999607;28;20040;-45
2022/07/12 04:22:56;;;;;;;1.05;1.00;;;16.40;60.00;;;;;;5004793;28;20272;-45
2022/07/12 04:25:25;;;;;;;1.20;1.10;;;16.40;60.10;;;;;;5014430;28;20077;-47
2022/07/12 04:27:56;;;;;;;1.25;0.95;;;16.50;60.40;;;;;;4999628;28;20110;-49
2022/07/12 04:30:22;;;;;;;1.00;1.00;;;16.40;60.40;;;;;;5003385;28;20093;-46
2022/07/12 04:32:52;;;;;;;1.13;1.08;;;16.50;60.60;;;;;;5001285;28;20042;-49
2022/07/12 04:35:21;;;;;;;2.35;1.02;;;16.50;60.80;;;;;;4995050;28;20038;-48
2022/07/12 04:37:48;;;;;;;1.40;0.90;;;16.60;60.90;;;;;;4994686;28;20521;-47
2022/07/12 04:40:15;;;;;;;1.23;1.13;;;16.50;61.00;;;;;;5012529;28;20108;-49
2022/07/12 04:42:41;;;;;;;1.02;0.90;;;16.60;61.20;;;;;;5006551;28;20041;-48
2022/07/12 04:45:08;;;;;;;1.02;0.95;;;16.60;61.20;;;;;;5011593;28;20038;-48
2022/07/12 04:47:38;;;;;;;2.00;1.13;;;16.60;61.40;;;;;;4999371;28;20042;-49
2022/07/12 04:50:08;;;;;;;0.82;0.82;;;16.70;61.50;;;;;;5003871;28;20046;-50
2022/07/12 04:52:35;;;;;;;1.15;1.00;;;16.70;62.00;;;;;;5012481;28;20050;-47
2022/07/12 04:55:02;;;;;;;1.98;1.77;;;16.80;61.90;;;;;;5005653;28;20075;-47
2022/07/12 04:57:29;;;;;;;1.23;1.13;;;16.80;62.00;;;;;;4998391;28;20371;-51
2022/07/12 04:59:56;;;;;;;1.70;1.30;;;16.80;62.00;;;;;;5003094;28;20100;-47
2022/07/12 05:02:26;;;;;;;1.30;1.02;;;16.90;62.20;;;;;;4993818;28;20046;-48
2022/07/12 05:04:53;;;;;;;0.98;0.98;;;16.90;62.60;;;;;;4996813;28;20077;-48
2022/07/12 05:07:19;;;;;;;1.23;1.08;;;17.00;62.40;;;;;;5001605;28;20501;-45
2022/07/12 05:09:47;;;;;;;1.17;1.13;;;17.00;62.50;;;;;;5008966;28;20103;-52
2022/07/12 05:12:13;;;;;;;2.05;1.00;;;17.00;62.60;;;;;;5012181;28;20065;-47
2022/07/12 05:14:40;;;;;;;1.17;1.00;;;17.10;62.70;;;;;;5007380;28;20038;-47
2022/07/12 05:17:09;;;;;;;6.03;1.38;;;17.10;62.80;;;;;;5007205;28;20042;-46
2022/07/12 05:19:39;;;;;;;1.55;1.45;;;17.20;62.90;;;;;;5004923;28;20044;-47
2022/07/12 05:22:06;;;;;;;4.13;1.38;;;17.20;63.30;;;;;;5013238;28;20054;-46
2022/07/12 05:24:33;;;;;;;1.83;1.73;;;17.30;63.20;;;;;;5008305;28;20391;-51
2022/07/12 05:27:02;;;;;;;2.05;1.85;;;17.30;63.30;;;;;;5006119;28;20046;-47
2022/07/12 05:29:31;;;;;;;4.22;2.08;;;17.40;63.50;;;;;;5003329;28;20049;-50
2022/07/12 05:31:58;;;;;;;2.70;1.80;;;17.50;63.80;;;;;;4993405;28;20050;-50
2022/07/12 05:34:25;;;;;;;3.05;1.70;;;17.50;63.70;;;;;;4997940;28;20120;-50
2022/07/12 05:36:51;;;;;;;1.70;1.60;;;17.60;63.90;;;;;;5005042;28;20089;-46
2022/07/12 05:39:18;;;;;;;4.03;1.90;;;17.60;64.00;;;;;;4996587;28;20050;-51
2022/07/12 05:41:47;;;;;;;1.73;1.63;;;17.70;64.10;;;;;;4993571;28;20100;-51
2022/07/12 05:44:17;;;;;;;2.60;2.20;;;17.70;64.20;;;;;;5003901;28;20049;-50
2022/07/12 05:46:44;;;;;;;2.42;2.22;;;17.80;64.40;;;;;;4998194;28;20042;-46
2022/07/12 05:49:10;;;;;;;2.33;2.13;;;17.90;64.50;;;;;;4995440;28;20045;-47
2022/07/12 05:54:23;;;;;;;2.55;2.30;;;18.00;64.80;;;;;;4999497;28;20034;-50
2022/07/12 05:56:50;;;;;;;3.35;2.58;;;18.10;64.90;;;;;;5000653;28;20053;-51
2022/07/12 05:59:18;;;;;;;2.58;2.13;;;18.20;65.40;;;;;;5004849;28;20217;-51
2022/07/12 06:01:44;;;;;;;3.85;3.55;;;18.20;65.60;;;;;;4995699;28;20450;-47
2022/07/12 06:04:11;;;;;;;3.63;2.85;;;18.40;66.20;;;;;;5008011;28;20461;-49
2022/07/12 06:06:38;;;;;;;3.42;2.80;;;18.50;66.50;;;;;;5006647;28;20497;-48
2022/07/12 06:09:04;;;;;;;5.00;2.95;;;18.50;66.50;;;;;;5011075;28;20041;-48
2022/07/12 06:11:33;;;;;;;5.18;3.38;;;18.60;66.70;;;;;;5000781;28;20041;-49
2022/07/12 06:14:00;;;;;;;3.63;2.72;;;18.70;67.30;;;;;;5008329;28;20046;-48
2022/07/12 06:16:26;;;;;;;4.00;2.63;;;18.80;67.20;;;;;;5001201;28;20038;-47
2022/07/12 06:18:53;;;;;;;3.20;2.90;;;19.00;67.60;;;;;;5002679;28;20097;-51
2022/07/12 06:21:20;;;;;;;3.67;2.95;;;19.10;67.40;;;;;;4973272;28;20046;-47
2022/07/12 06:23:46;;;;;;;3.75;2.75;;;19.20;67.20;;;;;;4989856;28;20497;-51
2022/07/12 06:26:13;;;;;;;3.10;2.80;;;19.30;67.90;;;;;;5005817;28;20386;-47
2022/07/12 06:28:41;;;;;;;2.70;2.47;;;19.40;67.30;;;;;;5006298;28;20050;-47
2022/07/12 06:31:07;;;;;;;2.92;2.72;;;19.50;67.20;;;;;;4996679;28;20125;-48
2022/07/12 06:33:34;;;;;;;3.80;3.28;;;19.70;67.30;;;;;;5001813;28;20034;-48
2022/07/12 06:36:01;;;;;;;3.20;2.50;;;19.80;67.70;;;;;;5009369;28;20548;-50
2022/07/12 06:38:27;;;;;;;3.08;2.85;;;19.90;68.00;;;;;;5011691;28;20108;-47
2022/07/12 06:40:55;;;;;;;3.65;3.35;;;20.10;67.70;;;;;;5002650;28;20553;-46
2022/07/12 06:43:21;;;;;;;3.70;3.35;;;20.20;67.70;;;;;;5003047;28;20046;-45
2022/07/12 06:45:48;;;;;;;5.82;3.88;;;20.40;67.60;;;;;;5005989;28;20057;-49
2022/07/12 06:48:15;;;;;;;4.85;3.97;;;20.40;67.50;;;;;;5007691;28;20433;-46
2022/07/12 06:50:42;;;;;;;4.10;3.70;;;20.60;67.40;;;;;;4995754;28;20092;-47
2022/07/12 06:53:11;;;;;;;5.97;3.53;;;20.70;67.30;;;;;;4994213;28;20038;-49
2022/07/12 06:55:38;;;;;;;3.97;3.67;;;20.80;67.00;;;;;;4972314;28;20461;-48
2022/07/12 06:58:05;;;;;;;3.90;3.60;;;20.90;66.70;;;;;;5011367;28;20088;-47
2022/07/12 07:00:32;;;;;;;5.80;4.20;;;21.00;66.50;;;;;;4997811;28;20419;-47
2022/07/12 07:02:58;;;;;;;3.92;3.60;;;21.10;66.10;;;;;;5003233;28;20041;-47
2022/07/12 07:05:26;;;;;;;4.43;4.03;;;21.30;66.10;;;;;;5011025;28;20038;-48
2022/07/12 07:07:52;;;;;;;5.20;3.97;;;21.40;65.80;;;;;;5005829;28;20046;-50
2022/07/12 07:10:19;;;;;;;4.57;4.18;;;21.50;65.40;;;;;;4998215;28;20042;-48
2022/07/12 07:12:46;;;;;;;5.32;4.63;;;21.60;65.90;;;;;;5002679;28;20050;-49
2022/07/12 07:15:15;;;;;;;7.88;5.90;;;21.70;64.80;;;;;;5011010;28;20045;-48
2022/07/12 07:17:42;;;;;;;6.53;5.85;;;21.80;64.30;;;;;;4990739;28;20454;-50
2022/07/12 07:20:10;;;;;;;5.70;4.97;;;21.90;64.10;;;;;;5001119;28;20053;-52
2022/07/12 07:22:38;;;;;;;4.93;4.50;;;22.00;63.90;;;;;;5005645;28;20061;-52
2022/07/12 07:25:07;;;;;;;5.78;4.93;;;22.00;63.90;;;;;;5006846;28;20046;-51
2022/07/12 07:27:34;;;;;;;5.55;5.05;;;22.10;63.70;;;;;;4992494;28;20038;-52
2022/07/12 07:32:46;;;;;;;5.53;5.03;;;22.20;63.00;;;;;;5011090;28;20046;-52
2022/07/12 07:35:20;;;;;;;6.05;5.43;;;22.30;62.90;;;;;;5011437;28;20061;-47
2022/07/12 07:37:47;;;;;;;5.90;5.30;;;22.30;62.90;;;;;;5000706;28;20038;-50
2022/07/12 07:40:14;;;;;;;6.07;5.45;;;22.30;62.60;;;;;;5004977;28;20057;-52
2022/07/12 07:42:41;;;;;;;6.43;5.78;;;22.40;62.40;;;;;;5004907;28;20108;-51
2022/07/12 07:45:10;;;;;;;6.80;6.20;;;22.40;62.30;;;;;;5005847;28;20659;-49
2022/07/12 07:47:48;;;;;;;6.20;5.70;;;22.40;62.00;;;;;;5007398;28;20108;-50
2022/07/12 07:50:35;;;;;;;9.95;6.13;;;22.50;62.00;;;;;;5003133;28;20042;-52
2022/07/12 07:53:02;;;;;;;6.40;5.40;;;22.50;61.70;;;;;;5014988;28;20072;-49
2022/07/12 07:55:29;;;;;;;6.03;5.40;;;22.50;61.80;;;;;;5011402;28;20114;-52
2022/07/12 07:57:59;;;;;;;5.55;4.97;;;22.60;61.70;;;;;;5005405;28;20046;-52
2022/07/12 08:00:26;;;;;;;6.40;5.22;;;22.60;61.60;;;;;;5007459;28;20037;-51
2022/07/12 08:02:55;;;;;;;5.65;5.15;;;22.60;61.60;;;;;;5014487;28;20050;-49
2022/07/12 08:05:22;;;;;;;5.32;4.90;;;22.60;61.70;;;;;;5004565;28;20050;-45
2022/07/12 08:07:54;;;;;;;5.00;4.60;;;22.70;61.10;;;;;;4999516;28;20096;-47
2022/07/12 08:10:21;;;;;;;4.80;4.35;;;22.90;61.30;;;;;;5014513;28;20046;-49
2022/07/12 08:12:48;;;;;;;4.80;4.40;;;22.90;61.30;;;;;;5010933;28;20501;-51
2022/07/12 08:15:15;;;;;;;4.63;4.00;;;23.00;61.20;;;;;;5004245;28;20802;-52
2022/07/12 08:17:42;;;;;;;4.57;4.03;;;23.00;60.70;;;;;;5006150;28;20048;-49
2022/07/12 08:20:19;;;;;;;5.50;5.10;;;23.10;60.50;;;;;;5014180;28;20050;-48
2022/07/12 08:23:06;;;;;;;6.97;5.80;;;23.20;60.10;;;;;;5003780;28;20030;-49
2022/07/12 08:25:33;;;;;;;6.25;5.72;;;23.30;60.00;;;;;;5000989;28;20046;-49
2022/07/12 08:28:02;;;;;;;6.07;5.57;;;23.50;59.60;;;;;;5005993;28;20046;-50
2022/07/12 08:30:29;;;;;;;5.45;4.97;;;23.50;59.30;;;;;;5014143;28;20046;-46
2022/07/12 08:32:56;;;;;;;4.90;4.40;;;23.70;59.10;;;;;;5010333;28;20045;-51
2022/07/12 08:35:23;;;;;;;6.75;4.97;;;23.70;58.80;;;;;;5008402;28;20042;-51
2022/07/12 08:37:49;;;;;;;5.70;5.03;;;23.80;57.90;;;;;;5009894;28;20041;-49
2022/07/12 08:40:17;;;;;;;4.30;3.90;;;23.90;57.90;;;;;;5009299;28;20769;-50
2022/07/12 08:42:45;;;;;;;5.25;4.47;;;24.00;57.50;;;;;;5003602;28;20037;-49
2022/07/12 08:45:11;;;;;;;4.30;3.90;;;24.10;57.50;;;;;;5003290;28;20131;-52
2022/07/12 08:47:38;;;;;;;4.57;3.97;;;24.20;57.60;;;;;;5006300;28;20057;-51
2022/07/12 08:50:17;;;;;;;5.65;3.95;;;24.30;57.10;;;;;;4997544;28;20049;-49
2022/07/12 08:52:54;;;;;;;5.30;4.68;;;24.40;56.70;;;;;;4999289;28;20041;-48
2022/07/12 08:55:25;;;;;;;3.80;3.50;;;24.50;56.20;;;;;;4997397;28;20042;-51
2022/07/12 08:57:59;;;;;;;4.57;4.18;;;24.70;56.30;;;;;;5013601;28;20057;-49
2022/07/12 09:00:28;;;;;;;4.95;4.47;;;24.80;55.50;;;;;;5004717;28;20038;-50
2022/07/12 09:03:03;;;;;;;5.05;4.63;;;24.80;55.60;;;;;;5008144;28;20412;-48
2022/07/12 09:05:33;;;;;;;5.88;4.22;;;24.90;55.00;;;;;;5006889;28;20132;-54
2022/07/12 09:08:07;;;;;;;3.33;3.03;;;25.00;55.30;;;;;;5013352;28;20074;-47
2022/07/12 09:10:54;;;;;;;3.97;3.47;;;25.10;55.40;;;;;;5006574;28;20050;-51
2022/07/12 09:13:45;;;;;;;6.15;3.60;;;25.20;54.70;;;;;;5000364;28;20101;-48
2022/07/12 09:16:14;;;;;;;4.32;3.05;;;25.30;54.00;;;;;;5012265;28;20045;-52
2022/07/12 09:18:41;;;;;;;3.67;3.38;;;25.30;54.20;;;;;;5008276;28;20042;-52
2022/07/12 09:21:29;;;;;;;3.60;3.30;;;25.40;53.80;;;;;;5004074;28;20528;-49
2022/07/12 09:23:57;;;;;;;3.50;3.20;;;25.40;53.50;;;;;;4999395;28;20089;-51
2022/07/12 09:26:30;;;;;;;3.33;3.03;;;25.50;53.40;;;;;;4993968;28;20042;-52
2022/07/12 09:29:05;;;;;;;3.38;3.08;;;25.50;53.20;;;;;;4992006;28;20430;-51
2022/07/12 09:37:21;;;;;;;3.22;2.92;;;25.60;52.70;;;;;;5004520;28;20053;-52
2022/07/12 09:39:48;;;;;;;2.85;2.60;;;25.70;53.40;;;;;;4999370;28;20090;-50
2022/07/12 09:42:15;;;;;;;2.95;2.75;;;25.70;52.60;;;;;;5000354;28;20037;-52
2022/07/12 09:44:42;;;;;;;3.83;3.17;;;25.80;52.00;;;;;;5002859;28;20042;-50
2022/07/12 09:47:15;;;;;;;2.67;2.47;;;25.80;51.20;;;;;;5004544;28;20409;-50
2022/07/12 09:49:43;;;;;;;2.33;2.17;;;25.90;51.70;;;;;;4996774;28;20034;-52
2022/07/12 09:52:13;;;;;;;2.08;1.92;;;25.90;51.80;;;;;;4999535;28;20568;-52
2022/07/12 09:54:41;;;;;;;2.88;2.67;;;25.90;51.70;;;;;;5000196;28;20034;-50
2022/07/12 09:57:19;;;;;;;2.17;1.98;;;25.90;51.00;;;;;;4996205;28;20502;-49
2022/07/12 09:59:49;;;;;;;3.33;2.53;;;26.00;50.70;;;;;;5003310;28;20042;-60
2022/07/12 10:02:16;;;;;;;2.88;1.92;;;25.90;51.20;;;;;;5010291;28;20505;-60
2022/07/12 10:04:45;;;;;;;2.50;2.25;;;25.90;50.80;;;;;;5005552;28;20042;-60
2022/07/12 10:07:13;;;;;;;2.03;1.88;;;26.00;51.30;;;;;;5004229;28;20402;-59
2022/07/12 10:09:53;;;;;;;2.58;2.08;;;26.00;51.40;;;;;;5002632;28;20046;-59
2022/07/12 10:12:22;;;;;;;4.78;2.72;;;26.10;51.20;;;;;;4988517;28;20046;-60
2022/07/12 10:15:00;;;;;;;2.40;1.95;;;26.10;50.90;;;;;;4998972;28;20045;-60
2022/07/12 10:17:29;;;;;;;2.05;1.95;;;26.10;49.40;;;;;;5004736;28;20037;-61
2022/07/12 10:20:15;;;;;;;1.83;1.73;;;26.10;50.00;;;;;;5001477;28;20050;-60
2022/07/12 10:22:43;;;;;;;2.67;1.70;;;26.20;49.90;;;;;;5009259;28;20509;-60
2022/07/12 10:25:30;;;;;;;3.72;2.20;;;26.20;50.00;;;;;;5004393;28;20092;-60
2022/07/12 10:27:59;;;;;;;1.98;1.88;;;26.20;50.30;;;;;;4999213;28;20046;-60
2022/07/12 10:30:26;;;;;;;1.75;1.65;;;26.20;50.30;;;;;;5002770;28;20080;-60
2022/07/12 10:32:57;;;;;;;1.67;1.58;;;26.20;49.60;;;;;;5015568;28;20490;-60
2022/07/12 10:35:29;;;;;;;1.75;1.65;;;26.20;49.60;;;;;;4994325;28;20046;-60
2022/07/12 10:38:11;;;;;;;1.80;1.70;;;26.30;49.90;;;;;;4994148;28;20509;-60
2022/07/12 10:40:40;;;;;;;1.50;1.40;;;26.30;49.10;;;;;;4985080;28;20113;-60
2022/07/12 10:43:07;;;;;;;1.77;1.67;;;26.40;49.70;;;;;;4987251;28;20053;-60
2022/07/12 10:45:41;;;;;;;2.35;1.50;;;26.40;50.60;;;;;;4987666;28;20165;-60
2022/07/12 10:48:14;;;;;;;1.65;1.55;;;26.50;49.60;;;;;;5001767;28;20045;-60
2022/07/12 10:50:57;;;;;;;1.85;1.75;;;26.60;48.60;;;;;;4988522;28;20096;-59
2022/07/12 10:53:26;;;;;;;2.50;2.05;;;26.60;49.30;;;;;;4991970;28;20501;-60
2022/07/12 10:56:04;;;;;;;1.70;1.25;;;26.70;48.80;;;;;;4995084;28;20106;-60
2022/07/12 10:58:32;;;;;;;2.75;1.33;;;26.80;48.20;;;;;;5003441;28;20046;-59
2022/07/12 11:01:01;;;;;;;1.13;1.13;;;26.90;48.10;;;;;;5007309;28;20510;-59
2022/07/12 11:03:38;;;;;;;4.88;1.45;;;27.00;48.00;;;;;;4998518;28;20046;-60
2022/07/12 11:06:07;;;;;;;2.22;1.60;;;27.10;48.00;;;;;;4999190;28;20108;-60
2022/07/12 11:09:02;;;;;;;1.00;1.00;;;27.10;47.60;;;;;;4985616;28;20395;-60
2022/07/12 11:11:34;;;;;;;1.02;0.93;;;27.10;46.50;;;;;;4990596;28;20046;-61
2022/07/12 11:14:02;;;;;;;2.75;1.10;;;27.20;46.80;;;;;;5000538;28;20426;-60
2022/07/12 11:16:30;;;;;;;1.27;1.10;;;27.30;46.60;;;;;;4994547;28;20080;-60
2022/07/12 11:18:57;;;;;;;1.40;1.30;;;27.30;46.50;;;;;;4988449;28;20046;-60
2022/07/12 11:21:25;;;;;;;0.70;0.70;;;27.40;45.60;;;;;;4994072;28;20049;-60
2022/07/12 11:23:52;;;;;;;0.70;0.70;;;27.40;45.40;;;;;;4991350;28;20053;-61
2022/07/12 11:26:19;;;;;;;0.93;0.93;;;27.50;45.30;;;;;;5006598;28;20042;-60
2022/07/12 11:28:48;;;;;;;0.88;0.88;;;27.60;45.90;;;;;;4995914;28;20045;-60
2022/07/12 11:31:17;;;;;;;2.33;0.90;;;27.70;45.90;;;;;;5003554;28;20057;-60
2022/07/12 11:33:50;;;;;;;0.93;0.82;;;27.80;45.30;;;;;;4997335;28;20046;-60
2022/07/12 11:36:17;;;;;;;1.73;1.25;;;27.90;44.60;;;;;;5005931;28;20042;-60
2022/07/12 11:38:45;;;;;;;0.82;0.82;;;28.00;44.80;;;;;;4994724;28;20031;-60
2022/07/12 11:41:14;;;;;;;0.70;0.70;;;28.20;44.10;;;;;;4992462;28;20054;-60
2022/07/12 11:43:41;;;;;;;1.08;1.08;;;28.30;43.70;;;;;;4990865;28;20053;-60
2022/07/12 11:46:09;;;;;;;1.33;1.33;;;28.40;43.90;;;;;;4992627;28;20042;-60
2022/07/12 11:48:37;;;;;;;4.57;0.93;;;28.50;44.20;;;;;;4998866;28;20050;-61
2022/07/12 11:51:09;;;;;;;1.23;0.90;;;28.70;44.70;;;;;;4998061;28;20058;-60
2022/07/12 11:53:37;;;;;;;1.95;0.80;;;28.80;44.30;;;;;;5008710;28;20049;-60
2022/07/12 11:56:05;;;;;;;1.50;0.95;;;28.90;43.90;;;;;;4989153;28;20049;-61
2022/07/12 11:58:37;;;;;;;0.88;0.63;;;29.10;43.10;;;;;;4988764;28;20054;-60
2022/07/12 12:01:09;;;;;;;0.45;0.45;;;29.30;42.30;;;;;;4992172;28;20043;-61
2022/07/12 12:03:46;;;;;;;0.80;0.80;;;29.40;41.70;;;;;;5003877;28;20060;-59
2022/07/12 12:06:13;;;;;;;0.60;0.50;;;29.60;40.60;;;;;;5009581;28;20413;-60
2022/07/12 12:08:41;;;;;;;1.17;0.85;;;29.80;40.70;;;;;;5001832;28;20061;-60
2022/07/12 12:11:08;;;;;;;0.85;0.70;;;29.90;41.00;;;;;;4998971;28;20103;-61
2022/07/12 12:13:34;;;;;;;1.00;0.60;;;30.10;40.30;;;;;;5004585;28;20513;-60
2022/07/12 12:16:03;;;;;;;1.13;0.77;;;30.30;40.50;;;;;;5007107;28;20096;-60
2022/07/12 12:18:41;;;;;;;2.08;0.88;;;30.40;39.60;;;;;;4994742;28;20505;-61
2022/07/12 12:21:12;;;;;;;0.63;0.63;;;30.50;39.40;;;;;;4994347;28;20433;-61
2022/07/12 12:23:41;;;;;;;1.30;0.70;;;30.60;39.20;;;;;;5000973;28;20046;-60
2022/07/12 12:26:15;;;;;;;2.45;0.75;;;30.80;39.50;;;;;;5000950;28;20502;-60
2022/07/12 12:28:50;;;;;;;1.30;0.90;;;30.90;39.70;;;;;;4999767;28;20041;-60
2022/07/12 12:31:21;;;;;;;1.02;0.98;;;31.10;38.90;;;;;;5004551;28;20137;-59
2022/07/12 12:34:01;;;;;;;1.83;1.33;;;31.20;39.50;;;;;;5013813;28;20479;-58
2022/07/12 12:36:35;;;;;;;2.17;0.85;;;31.30;39.20;;;;;;5010328;28;20045;-61
2022/07/12 12:39:03;;;;;;;1.17;0.93;;;31.40;39.20;;;;;;5004549;28;20440;-61
2022/07/12 12:41:37;;;;;;;1.55;0.90;;;31.50;39.00;;;;;;4990415;28;20050;-61
2022/07/12 12:44:07;;;;;;;1.27;0.90;;;31.60;38.70;;;;;;4981988;28;20047;-60
2022/07/12 12:47:30;;;;;;;0.75;0.75;;;31.70;38.70;;;;;;4993163;28;20049;-61
2022/07/12 12:49:44;;;;;;;0.98;0.93;;;31.80;37.30;;;;;;4992513;28;20498;-61
2022/07/12 12:52:11;;;;;;;0.98;0.88;;;31.90;38.50;;;;;;5016072;23;20505;-54
2022/07/12 12:54:38;;;;;;;1.27;0.90;;;32.00;37.60;;;;;;5013319;28;20041;-56
2022/07/12 12:57:06;;;;;;;2.45;1.00;;;32.10;36.80;;;;;;5013501;28;20061;-53
2022/07/12 12:59:34;;;;;;;1.60;0.80;;;32.20;36.70;;;;;;5008729;28;20039;-58
2022/07/12 13:02:02;;;;;;;0.70;0.70;;;32.40;36.80;;;;;;5018882;28;20046;-56
2022/07/12 13:04:30;;;;;;;0.82;0.82;;;32.40;37.40;;;;;;5012006;28;20038;-56
2022/07/12 13:06:58;;;;;;;1.05;0.80;;;32.50;36.70;;;;;;5014892;28;20053;-56
2022/07/12 13:09:25;;;;;;;2.53;1.00;;;32.70;36.70;;;;;;5014855;28;20405;-57
2022/07/12 13:11:52;;;;;;;3.42;0.60;;;32.80;36.90;;;;;;5015249;28;20137;-54